sensor_id;sensor_type;location;lat;lon;timestamp;pressure;altitude;pressure_sealevel;temperature;humidity
75359;BME280;64046;51.978;5.934;2023-07-02T00:00:25;100503.25;;;23.40;80.70
75359;BME280;64046;51.978;5.934;2023-07-02T00:02:57;100505.44;;;23.44;81.38
75359;BME280;64046;51.978;5.934;2023-07-02T00:05:33;100513.84;;;23.58;80.96
75359;BME280;64046;51.978;5.934;2023-07-02T00:08:04;100507.09;;;23.45;81.48
75359;BME280;64046;51.978;5.934;2023-07-02T00:10:36;100502.06;;;23.42;81.93
75359;BME280;64046;51.978;5.934;2023-07-02T00:13:06;100509.72;;;23.29;82.37
75359;BME280;64046;51.978;5.934;2023-07-02T00:15:39;100512.69;;;23.26;82.97
75359;BME280;64046;51.978;5.934;2023-07-02T00:18:11;100499.13;;;23.19;83.48
75359;BME280;64046;51.978;5.934;2023-07-02T00:20:46;100504.56;;;23.36;83.01
75359;BME280;64046;51.978;5.934;2023-07-02T00:23:23;100496.81;;;23.24;82.82
75359;BME280;64046;51.978;5.934;2023-07-02T00:25:57;100495.34;;;23.30;83.04
75359;BME280;64046;51.978;5.934;2023-07-02T00:28:32;100497.09;;;23.47;82.29
75359;BME280;64046;51.978;5.934;2023-07-02T00:31:04;100485.47;;;23.30;82.73
75359;BME280;64046;51.978;5.934;2023-07-02T00:33:40;100495.75;;;23.43;82.02
75359;BME280;64046;51.978;5.934;2023-07-02T00:36:16;100497.69;;;23.33;82.22
75359;BME280;64046;51.978;5.934;2023-07-02T00:38:49;100496.19;;;23.30;82.50
75359;BME280;64046;51.978;5.934;2023-07-02T00:41:20;100502.63;;;23.20;82.96
75359;BME280;64046;51.978;5.934;2023-07-02T00:43:52;100500.69;;;23.30;82.37
75359;BME280;64046;51.978;5.934;2023-07-02T00:46:24;100508.78;;;23.12;83.63
75359;BME280;64046;51.978;5.934;2023-07-02T00:48:55;100498.13;;;23.20;85.11
75359;BME280;64046;51.978;5.934;2023-07-02T00:51:33;100535.41;;;23.04;84.89
75359;BME280;64046;51.978;5.934;2023-07-02T00:54:03;100542.88;;;22.74;85.74
75359;BME280;64046;51.978;5.934;2023-07-02T00:56:51;100549.13;;;22.64;84.89
75359;BME280;64046;51.978;5.934;2023-07-02T00:59:23;100561.50;;;22.48;84.33
75359;BME280;64046;51.978;5.934;2023-07-02T01:01:55;100549.81;;;22.49;82.59
75359;BME280;64046;51.978;5.934;2023-07-02T01:04:30;100560.28;;;22.60;80.25
75359;BME280;64046;51.978;5.934;2023-07-02T01:07:11;100554.53;;;22.55;79.51
75359;BME280;64046;51.978;5.934;2023-07-02T01:09:42;100550.97;;;22.46;79.20
75359;BME280;64046;51.978;5.934;2023-07-02T01:12:17;100552.66;;;22.47;79.47
75359;BME280;64046;51.978;5.934;2023-07-02T01:14:51;100550.19;;;22.54;80.01
75359;BME280;64046;51.978;5.934;2023-07-02T01:17:27;100562.09;;;22.59;79.16
75359;BME280;64046;51.978;5.934;2023-07-02T01:20:09;100558.75;;;22.57;78.20
75359;BME280;64046;51.978;5.934;2023-07-02T01:22:56;100559.75;;;22.38;79.35
75359;BME280;64046;51.978;5.934;2023-07-02T01:25:29;100558.06;;;22.37;80.30
75359;BME280;64046;51.978;5.934;2023-07-02T01:28:03;100557.38;;;22.35;80.14
75359;BME280;64046;51.978;5.934;2023-07-02T01:30:35;100559.91;;;22.37;80.64
75359;BME280;64046;51.978;5.934;2023-07-02T01:33:04;100564.81;;;22.32;80.62
75359;BME280;64046;51.978;5.934;2023-07-02T01:35:41;100576.06;;;22.53;79.83
75359;BME280;64046;51.978;5.934;2023-07-02T01:38:14;100571.56;;;22.54;80.34
75359;BME280;64046;51.978;5.934;2023-07-02T01:40:43;100574.06;;;22.37;81.46
75359;BME280;64046;51.978;5.934;2023-07-02T01:43:16;100572.16;;;22.48;81.06
75359;BME280;64046;51.978;5.934;2023-07-02T01:45:46;100564.69;;;22.33;81.51
75359;BME280;64046;51.978;5.934;2023-07-02T01:48:15;100569.75;;;22.26;81.81
75359;BME280;64046;51.978;5.934;2023-07-02T01:50:51;100583.06;;;22.36;81.62
75359;BME280;64046;51.978;5.934;2023-07-02T01:53:27;100580.31;;;22.28;81.84
75359;BME280;64046;51.978;5.934;2023-07-02T01:55:57;100570.41;;;22.10;82.76
75359;BME280;64046;51.978;5.934;2023-07-02T01:58:31;100579.59;;;22.26;82.42
75359;BME280;64046;51.978;5.934;2023-07-02T02:01:03;100580.09;;;22.11;83.29
75359;BME280;64046;51.978;5.934;2023-07-02T02:03:35;100579.88;;;22.33;82.32
75359;BME280;64046;51.978;5.934;2023-07-02T02:06:12;100577.72;;;22.36;81.75
75359;BME280;64046;51.978;5.934;2023-07-02T02:08:42;100580.50;;;22.17;82.19
75359;BME280;64046;51.978;5.934;2023-07-02T02:11:13;100581.19;;;22.19;82.48
75359;BME280;64046;51.978;5.934;2023-07-02T02:13:44;100577.84;;;22.17;81.47
75359;BME280;64046;51.978;5.934;2023-07-02T02:16:17;100578.66;;;22.17;81.25
75359;BME280;64046;51.978;5.934;2023-07-02T02:18:53;100586.28;;;22.12;81.01
75359;BME280;64046;51.978;5.934;2023-07-02T02:21:27;100588.59;;;22.25;80.74
75359;BME280;64046;51.978;5.934;2023-07-02T02:23:59;100591.22;;;22.07;81.28
75359;BME280;64046;51.978;5.934;2023-07-02T02:26:30;100594.63;;;21.99;81.10
75359;BME280;64046;51.978;5.934;2023-07-02T02:28:59;100601.00;;;21.88;82.02
75359;BME280;64046;51.978;5.934;2023-07-02T02:31:29;100603.13;;;21.85;81.97
75359;BME280;64046;51.978;5.934;2023-07-02T02:34:09;100603.47;;;22.00;81.83
75359;BME280;64046;51.978;5.934;2023-07-02T02:36:43;100598.59;;;21.95;82.30
75359;BME280;64046;51.978;5.934;2023-07-02T02:39:20;100598.72;;;21.93;81.71
75359;BME280;64046;51.978;5.934;2023-07-02T02:41:51;100590.81;;;21.74;82.67
75359;BME280;64046;51.978;5.934;2023-07-02T02:44:21;100589.69;;;21.76;83.09
75359;BME280;64046;51.978;5.934;2023-07-02T02:46:58;100594.69;;;21.89;82.75
75359;BME280;64046;51.978;5.934;2023-07-02T02:49:32;100594.81;;;21.88;82.36
75359;BME280;64046;51.978;5.934;2023-07-02T02:52:05;100602.44;;;21.83;82.48
75359;BME280;64046;51.978;5.934;2023-07-02T02:54:37;100600.34;;;21.76;83.62
75359;BME280;64046;51.978;5.934;2023-07-02T02:57:12;100599.13;;;21.71;83.58
75359;BME280;64046;51.978;5.934;2023-07-02T02:59:45;100600.84;;;21.62;83.96
75359;BME280;64046;51.978;5.934;2023-07-02T03:02:15;100603.06;;;21.67;84.16
75359;BME280;64046;51.978;5.934;2023-07-02T03:04:44;100609.94;;;21.69;84.01
75359;BME280;64046;51.978;5.934;2023-07-02T03:07:18;100609.16;;;21.87;83.94
75359;BME280;64046;51.978;5.934;2023-07-02T03:09:52;100614.38;;;21.78;84.01
75359;BME280;64046;51.978;5.934;2023-07-02T03:12:24;100616.16;;;21.88;83.91
75359;BME280;64046;51.978;5.934;2023-07-02T03:14:54;100620.69;;;21.77;84.40
75359;BME280;64046;51.978;5.934;2023-07-02T03:17:23;100617.16;;;21.87;84.21
75359;BME280;64046;51.978;5.934;2023-07-02T03:19:56;100622.09;;;21.82;84.03
75359;BME280;64046;51.978;5.934;2023-07-02T03:22:28;100636.47;;;21.99;82.67
75359;BME280;64046;51.978;5.934;2023-07-02T03:24:58;100623.22;;;21.79;83.10
75359;BME280;64046;51.978;5.934;2023-07-02T03:27:29;100621.56;;;21.78;83.00
75359;BME280;64046;51.978;5.934;2023-07-02T03:30:00;100624.91;;;21.80;82.57
75359;BME280;64046;51.978;5.934;2023-07-02T03:32:30;100629.41;;;21.80;83.23
75359;BME280;64046;51.978;5.934;2023-07-02T03:35:03;100635.03;;;21.76;82.89
75359;BME280;64046;51.978;5.934;2023-07-02T03:37:38;100640.88;;;21.90;82.64
75359;BME280;64046;51.978;5.934;2023-07-02T03:40:10;100643.31;;;21.73;82.79
75359;BME280;64046;51.978;5.934;2023-07-02T03:42:40;100645.59;;;21.68;82.71
75359;BME280;64046;51.978;5.934;2023-07-02T03:45:10;100642.63;;;21.71;83.20
75359;BME280;64046;51.978;5.934;2023-07-02T03:47:39;100639.16;;;21.61;83.54
75359;BME280;64046;51.978;5.934;2023-07-02T03:50:13;100645.00;;;21.65;83.21
75359;BME280;64046;51.978;5.934;2023-07-02T03:52:47;100646.25;;;21.80;82.87
75359;BME280;64046;51.978;5.934;2023-07-02T03:55:19;100644.72;;;21.68;83.08
75359;BME280;64046;51.978;5.934;2023-07-02T03:57:49;100650.91;;;21.68;82.63
75359;BME280;64046;51.978;5.934;2023-07-02T04:00:22;100650.19;;;21.66;82.31
75359;BME280;64046;51.978;5.934;2023-07-02T04:02:54;100655.38;;;21.77;82.45
75359;BME280;64046;51.978;5.934;2023-07-02T04:05:25;100644.31;;;21.72;82.68
75359;BME280;64046;51.978;5.934;2023-07-02T04:08:00;100657.19;;;21.87;82.78
75359;BME280;64046;51.978;5.934;2023-07-02T04:10:29;100656.75;;;21.82;82.38
75359;BME280;64046;51.978;5.934;2023-07-02T04:13:08;100664.56;;;22.03;81.05
75359;BME280;64046;51.978;5.934;2023-07-02T04:15:39;100662.81;;;21.84;81.38
75359;BME280;64046;51.978;5.934;2023-07-02T04:18:09;100662.81;;;21.84;81.05
75359;BME280;64046;51.978;5.934;2023-07-02T04:20:44;100660.81;;;21.86;80.39
75359;BME280;64046;51.978;5.934;2023-07-02T04:23:19;100662.56;;;22.05;79.63
75359;BME280;64046;51.978;5.934;2023-07-02T04:25:50;100665.97;;;21.97;78.20
75359;BME280;64046;51.978;5.934;2023-07-02T04:28:23;100674.06;;;22.15;77.22
75359;BME280;64046;51.978;5.934;2023-07-02T04:30:52;100668.34;;;22.00;76.93
75359;BME280;64046;51.978;5.934;2023-07-02T04:33:22;100665.69;;;22.00;76.97
75359;BME280;64046;51.978;5.934;2023-07-02T04:35:53;100661.44;;;22.07;76.75
75359;BME280;64046;51.978;5.934;2023-07-02T04:38:26;100674.47;;;22.10;76.06
75359;BME280;64046;51.978;5.934;2023-07-02T04:40:56;100676.94;;;21.94;76.58
75359;BME280;64046;51.978;5.934;2023-07-02T04:43:27;100681.41;;;21.93;74.97
75359;BME280;64046;51.978;5.934;2023-07-02T04:45:59;100676.69;;;21.87;74.68
75359;BME280;64046;51.978;5.934;2023-07-02T04:48:29;100676.66;;;21.97;74.81
75359;BME280;64046;51.978;5.934;2023-07-02T04:50:59;100682.94;;;22.06;73.37
75359;BME280;64046;51.978;5.934;2023-07-02T04:53:33;100684.50;;;22.36;72.58
75359;BME280;64046;51.978;5.934;2023-07-02T04:56:04;100684.00;;;22.33;71.38
75359;BME280;64046;51.978;5.934;2023-07-02T04:58:34;100683.25;;;22.30;70.78
75359;BME280;64046;51.978;5.934;2023-07-02T05:01:08;100688.19;;;22.35;70.33
75359;BME280;64046;51.978;5.934;2023-07-02T05:03:42;100682.16;;;22.33;69.62
75359;BME280;64046;51.978;5.934;2023-07-02T05:06:12;100687.03;;;22.38;69.25
75359;BME280;64046;51.978;5.934;2023-07-02T05:08:52;100701.69;;;22.61;68.20
75359;BME280;64046;51.978;5.934;2023-07-02T05:11:34;100700.25;;;22.67;67.79
75359;BME280;64046;51.978;5.934;2023-07-02T05:14:05;100696.22;;;22.53;67.54
75359;BME280;64046;51.978;5.934;2023-07-02T05:16:38;100701.03;;;22.50;66.78
75359;BME280;64046;51.978;5.934;2023-07-02T05:19:08;100689.97;;;22.44;66.54
75359;BME280;64046;51.978;5.934;2023-07-02T05:21:39;100705.47;;;22.59;65.16
75359;BME280;64046;51.978;5.934;2023-07-02T05:24:17;100713.34;;;22.60;64.28
75359;BME280;64046;51.978;5.934;2023-07-02T05:26:51;100713.66;;;22.57;64.50
75359;BME280;64046;51.978;5.934;2023-07-02T05:29:21;100716.91;;;22.51;64.30
75359;BME280;64046;51.978;5.934;2023-07-02T05:31:56;100716.94;;;22.69;64.02
75359;BME280;64046;51.978;5.934;2023-07-02T05:34:26;100712.50;;;22.60;63.73
75359;BME280;64046;51.978;5.934;2023-07-02T05:36:56;100713.50;;;22.59;63.47
75359;BME280;64046;51.978;5.934;2023-07-02T05:39:30;100718.31;;;22.73;62.80
75359;BME280;64046;51.978;5.934;2023-07-02T05:42:00;100719.97;;;22.56;62.76
75359;BME280;64046;51.978;5.934;2023-07-02T05:44:30;100722.34;;;22.59;62.71
75359;BME280;64046;51.978;5.934;2023-07-02T05:47:00;100729.00;;;22.55;62.29
75359;BME280;64046;51.978;5.934;2023-07-02T05:49:40;100721.97;;;22.54;62.00
75359;BME280;64046;51.978;5.934;2023-07-02T05:52:10;100729.38;;;22.60;62.25
75359;BME280;64046;51.978;5.934;2023-07-02T05:54:46;100728.34;;;22.89;60.80
75359;BME280;64046;51.978;5.934;2023-07-02T05:57:16;100734.59;;;22.80;60.67
75359;BME280;64046;51.978;5.934;2023-07-02T05:59:47;100737.13;;;22.81;60.39
75359;BME280;64046;51.978;5.934;2023-07-02T06:02:18;100739.34;;;22.86;59.59
75359;BME280;64046;51.978;5.934;2023-07-02T06:04:50;100741.03;;;22.87;59.68
75359;BME280;64046;51.978;5.934;2023-07-02T06:07:24;100734.56;;;23.08;59.32
75359;BME280;64046;51.978;5.934;2023-07-02T06:09:59;100742.13;;;23.12;58.57
75359;BME280;64046;51.978;5.934;2023-07-02T06:12:31;100736.75;;;22.94;58.37
75359;BME280;64046;51.978;5.934;2023-07-02T06:15:01;100744.22;;;22.91;58.24
75359;BME280;64046;51.978;5.934;2023-07-02T06:17:34;100740.06;;;23.06;57.61
75359;BME280;64046;51.978;5.934;2023-07-02T06:20:12;100755.72;;;23.01;57.49
75359;BME280;64046;51.978;5.934;2023-07-02T06:22:44;100760.19;;;23.01;58.06
75359;BME280;64046;51.978;5.934;2023-07-02T06:25:20;100748.13;;;23.24;56.86
75359;BME280;64046;51.978;5.934;2023-07-02T06:27:52;100754.38;;;23.33;56.45
75359;BME280;64046;51.978;5.934;2023-07-02T06:30:29;100761.03;;;23.47;56.28
75359;BME280;64046;51.978;5.934;2023-07-02T06:32:58;100757.22;;;23.31;55.60
75359;BME280;64046;51.978;5.934;2023-07-02T06:35:28;100756.75;;;23.36;55.73
75359;BME280;64046;51.978;5.934;2023-07-02T06:38:03;100764.47;;;23.57;54.51
75359;BME280;64046;51.978;5.934;2023-07-02T06:40:37;100768.66;;;23.60;54.40
75359;BME280;64046;51.978;5.934;2023-07-02T06:43:10;100772.47;;;23.39;54.61
75359;BME280;64046;51.978;5.934;2023-07-02T06:45:46;100777.69;;;23.59;53.45
75359;BME280;64046;51.978;5.934;2023-07-02T06:48:20;100778.69;;;23.40;53.25
75359;BME280;64046;51.978;5.934;2023-07-02T06:50:52;100780.19;;;23.24;53.76
75359;BME280;64046;51.978;5.934;2023-07-02T06:53:30;100790.81;;;23.16;53.72
75359;BME280;64046;51.978;5.934;2023-07-02T06:56:07;100782.50;;;23.37;53.42
75359;BME280;64046;51.978;5.934;2023-07-02T06:58:41;100785.59;;;23.32;53.65
75359;BME280;64046;51.978;5.934;2023-07-02T07:01:12;100788.91;;;23.26;53.06
75359;BME280;64046;51.978;5.934;2023-07-02T07:03:44;100805.50;;;23.30;52.77
75359;BME280;64046;51.978;5.934;2023-07-02T07:06:14;100807.78;;;23.25;52.32
75359;BME280;64046;51.978;5.934;2023-07-02T07:08:46;100812.59;;;23.21;51.50
75359;BME280;64046;51.978;5.934;2023-07-02T07:11:20;100795.41;;;23.42;50.96
75359;BME280;64046;51.978;5.934;2023-07-02T07:13:50;100812.72;;;23.20;51.14
75359;BME280;64046;51.978;5.934;2023-07-02T07:16:23;100817.69;;;23.14;50.90
75359;BME280;64046;51.978;5.934;2023-07-02T07:18:56;100815.59;;;23.08;51.14
75359;BME280;64046;51.978;5.934;2023-07-02T07:21:27;100820.22;;;23.06;50.79
75359;BME280;64046;51.978;5.934;2023-07-02T07:24:01;100822.16;;;22.86;50.78
75359;BME280;64046;51.978;5.934;2023-07-02T07:26:33;100833.34;;;22.99;50.67
75359;BME280;64046;51.978;5.934;2023-07-02T07:29:05;100829.47;;;22.94;50.58
75359;BME280;64046;51.978;5.934;2023-07-02T07:31:36;100830.25;;;23.04;50.26
75359;BME280;64046;51.978;5.934;2023-07-02T07:34:07;100832.28;;;23.20;50.31
75359;BME280;64046;51.978;5.934;2023-07-02T07:36:40;100836.91;;;23.46;49.46
75359;BME280;64046;51.978;5.934;2023-07-02T07:39:21;100835.84;;;23.75;48.91
75359;BME280;64046;51.978;5.934;2023-07-02T07:41:55;100838.44;;;23.84;49.19
75359;BME280;64046;51.978;5.934;2023-07-02T07:44:25;100833.97;;;23.75;48.95
75359;BME280;64046;51.978;5.934;2023-07-02T07:47:01;100835.59;;;23.86;48.67
75359;BME280;64046;51.978;5.934;2023-07-02T07:49:37;100835.06;;;24.00;48.59
75359;BME280;64046;51.978;5.934;2023-07-02T07:52:19;100838.13;;;24.06;48.41
75359;BME280;64046;51.978;5.934;2023-07-02T07:54:51;100835.94;;;24.27;47.74
75359;BME280;64046;51.978;5.934;2023-07-02T07:57:28;100840.91;;;24.48;47.62
75359;BME280;64046;51.978;5.934;2023-07-02T08:00:00;100834.09;;;24.28;48.00
75359;BME280;64046;51.978;5.934;2023-07-02T08:02:44;100835.25;;;24.25;48.57
75359;BME280;64046;51.978;5.934;2023-07-02T08:05:16;100837.16;;;24.33;48.23
75359;BME280;64046;51.978;5.934;2023-07-02T08:07:50;100837.59;;;24.28;48.43
75359;BME280;64046;51.978;5.934;2023-07-02T08:10:31;100833.28;;;24.35;48.71
75359;BME280;64046;51.978;5.934;2023-07-02T08:13:07;100834.22;;;24.52;47.50
75359;BME280;64046;51.978;5.934;2023-07-02T08:15:40;100840.28;;;24.55;47.61
75359;BME280;64046;51.978;5.934;2023-07-02T08:18:11;100844.22;;;24.42;47.81
75359;BME280;64046;51.978;5.934;2023-07-02T08:20:50;100843.94;;;24.53;46.86
75359;BME280;64046;51.978;5.934;2023-07-02T08:23:23;100838.56;;;24.72;46.29
75359;BME280;64046;51.978;5.934;2023-07-02T08:25:59;100851.50;;;24.84;45.20
75359;BME280;64046;51.978;5.934;2023-07-02T08:28:34;100846.13;;;24.76;44.02
75359;BME280;64046;51.978;5.934;2023-07-02T08:31:08;100850.44;;;24.69;43.66
75359;BME280;64046;51.978;5.934;2023-07-02T08:33:40;100853.66;;;24.81;43.71
75359;BME280;64046;51.978;5.934;2023-07-02T08:36:12;100849.41;;;24.70;42.96
75359;BME280;64046;51.978;5.934;2023-07-02T08:38:45;100861.59;;;24.64;42.69
75359;BME280;64046;51.978;5.934;2023-07-02T08:41:16;100869.69;;;24.46;42.38
75359;BME280;64046;51.978;5.934;2023-07-02T08:43:49;100864.50;;;24.45;42.28
75359;BME280;64046;51.978;5.934;2023-07-02T08:46:19;100872.00;;;24.15;43.09
75359;BME280;64046;51.978;5.934;2023-07-02T08:48:50;100864.34;;;24.02;43.10
75359;BME280;64046;51.978;5.934;2023-07-02T08:51:20;100868.50;;;23.96;43.12
75359;BME280;64046;51.978;5.934;2023-07-02T08:53:53;100886.72;;;23.93;43.40
75359;BME280;64046;51.978;5.934;2023-07-02T08:56:26;100880.72;;;23.99;43.47
75359;BME280;64046;51.978;5.934;2023-07-02T08:59:05;100883.63;;;24.06;43.58
75359;BME280;64046;51.978;5.934;2023-07-02T09:01:45;100876.78;;;24.11;43.51
75359;BME280;64046;51.978;5.934;2023-07-02T09:04:21;100880.34;;;24.12;43.62
75359;BME280;64046;51.978;5.934;2023-07-02T09:07:08;100877.56;;;24.48;43.13
75359;BME280;64046;51.978;5.934;2023-07-02T09:09:52;100880.84;;;24.60;42.53
75359;BME280;64046;51.978;5.934;2023-07-02T09:12:24;100878.53;;;24.39;42.68
75359;BME280;64046;51.978;5.934;2023-07-02T09:15:04;100886.41;;;24.40;42.13
75359;BME280;64046;51.978;5.934;2023-07-02T09:17:42;100893.25;;;24.16;41.97
75359;BME280;64046;51.978;5.934;2023-07-02T09:20:17;100890.56;;;24.16;41.69
75359;BME280;64046;51.978;5.934;2023-07-02T09:22:53;100883.91;;;24.21;41.70
75359;BME280;64046;51.978;5.934;2023-07-02T09:25:40;100879.06;;;24.24;41.81
75359;BME280;64046;51.978;5.934;2023-07-02T09:28:15;100882.78;;;24.76;41.55
75359;BME280;64046;51.978;5.934;2023-07-02T09:30:58;100878.81;;;24.88;40.20
75359;BME280;64046;51.978;5.934;2023-07-02T09:33:29;100878.53;;;24.65;40.04
75359;BME280;64046;51.978;5.934;2023-07-02T09:36:00;100883.72;;;24.40;39.01
75359;BME280;64046;51.978;5.934;2023-07-02T09:38:34;100892.59;;;24.41;38.92
75359;BME280;64046;51.978;5.934;2023-07-02T09:41:07;100887.16;;;24.32;38.66
75359;BME280;64046;51.978;5.934;2023-07-02T09:43:38;100885.47;;;24.31;38.66
75359;BME280;64046;51.978;5.934;2023-07-02T09:46:12;100880.63;;;24.53;37.26
75359;BME280;64046;51.978;5.934;2023-07-02T09:48:45;100885.34;;;24.33;37.17
75359;BME280;64046;51.978;5.934;2023-07-02T09:51:19;100880.28;;;24.30;37.19
75359;BME280;64046;51.978;5.934;2023-07-02T09:53:48;100884.56;;;24.41;36.71
75359;BME280;64046;51.978;5.934;2023-07-02T09:56:19;100879.84;;;24.61;36.61
75359;BME280;64046;51.978;5.934;2023-07-02T09:58:51;100875.59;;;24.76;36.28
75359;BME280;64046;51.978;5.934;2023-07-02T10:01:28;100875.88;;;24.99;36.01
75359;BME280;64046;51.978;5.934;2023-07-02T10:04:12;100885.31;;;25.20;35.96
75359;BME280;64046;51.978;5.934;2023-07-02T10:06:46;100881.59;;;25.04;36.48
75359;BME280;64046;51.978;5.934;2023-07-02T10:09:19;100886.75;;;24.98;36.04
75359;BME280;64046;51.978;5.934;2023-07-02T10:11:58;100894.25;;;24.86;36.42
75359;BME280;64046;51.978;5.934;2023-07-02T10:14:41;100897.06;;;25.27;36.68
75359;BME280;64046;51.978;5.934;2023-07-02T10:17:25;100893.13;;;25.39;35.81
75359;BME280;64046;51.978;5.934;2023-07-02T10:20:05;100895.81;;;25.39;35.63
75359;BME280;64046;51.978;5.934;2023-07-02T10:22:47;100897.03;;;25.53;34.59
75359;BME280;64046;51.978;5.934;2023-07-02T10:25:27;100893.00;;;25.58;34.73
75359;BME280;64046;51.978;5.934;2023-07-02T10:28:13;100902.75;;;25.67;34.66
75359;BME280;64046;51.978;5.934;2023-07-02T10:30:44;100897.88;;;25.62;34.61
75359;BME280;64046;51.978;5.934;2023-07-02T10:33:18;100889.19;;;25.85;34.46
75359;BME280;64046;51.978;5.934;2023-07-02T10:35:50;100892.72;;;25.85;33.92
75359;BME280;64046;51.978;5.934;2023-07-02T10:38:23;100898.56;;;25.72;34.30
75359;BME280;64046;51.978;5.934;2023-07-02T10:40:58;100897.38;;;25.67;33.98
75359;BME280;64046;51.978;5.934;2023-07-02T10:43:34;100906.56;;;25.56;34.25
75359;BME280;64046;51.978;5.934;2023-07-02T10:46:03;100902.34;;;25.37;34.31
75359;BME280;64046;51.978;5.934;2023-07-02T10:48:51;100899.53;;;25.55;33.54
75359;BME280;64046;51.978;5.934;2023-07-02T10:51:28;100895.44;;;25.34;33.99
75359;BME280;64046;51.978;5.934;2023-07-02T10:54:02;100901.03;;;25.49;33.72
75359;BME280;64046;51.978;5.934;2023-07-02T10:56:32;100900.84;;;25.43;33.88
75359;BME280;64046;51.978;5.934;2023-07-02T10:59:04;100894.84;;;25.57;34.19
75359;BME280;64046;51.978;5.934;2023-07-02T11:01:39;100902.56;;;25.52;33.57
75359;BME280;64046;51.978;5.934;2023-07-02T11:04:11;100906.75;;;25.46;33.72
75359;BME280;64046;51.978;5.934;2023-07-02T11:06:43;100913.84;;;25.29;33.74
75359;BME280;64046;51.978;5.934;2023-07-02T11:09:17;100901.84;;;25.42;34.06
75359;BME280;64046;51.978;5.934;2023-07-02T11:11:58;100918.97;;;25.41;34.02
75359;BME280;64046;51.978;5.934;2023-07-02T11:14:33;100921.75;;;25.31;33.72
75359;BME280;64046;51.978;5.934;2023-07-02T11:17:06;100912.25;;;25.36;33.84
75359;BME280;64046;51.978;5.934;2023-07-02T11:19:52;100922.97;;;25.36;33.31
75359;BME280;64046;51.978;5.934;2023-07-02T11:22:36;100912.09;;;25.46;33.33
75359;BME280;64046;51.978;5.934;2023-07-02T11:25:25;100906.22;;;25.43;33.96
75359;BME280;64046;51.978;5.934;2023-07-02T11:28:03;100926.59;;;25.78;33.14
75359;BME280;64046;51.978;5.934;2023-07-02T11:30:45;100927.25;;;25.80;32.70
75359;BME280;64046;51.978;5.934;2023-07-02T11:33:20;100920.50;;;25.60;32.85
75359;BME280;64046;51.978;5.934;2023-07-02T11:35:59;100919.00;;;25.57;32.67
75359;BME280;64046;51.978;5.934;2023-07-02T11:38:36;100920.72;;;25.66;32.90
75359;BME280;64046;51.978;5.934;2023-07-02T11:41:35;100922.88;;;25.71;32.94
75359;BME280;64046;51.978;5.934;2023-07-02T11:44:10;100923.41;;;25.83;32.84
75359;BME280;64046;51.978;5.934;2023-07-02T11:46:44;100919.16;;;25.55;33.11
75359;BME280;64046;51.978;5.934;2023-07-02T11:49:17;100922.84;;;25.54;32.80
75359;BME280;64046;51.978;5.934;2023-07-02T11:51:50;100924.88;;;25.61;32.72
75359;BME280;64046;51.978;5.934;2023-07-02T11:54:23;100917.06;;;25.33;32.62
75359;BME280;64046;51.978;5.934;2023-07-02T11:56:59;100918.38;;;25.29;32.26
75359;BME280;64046;51.978;5.934;2023-07-02T11:59:33;100920.88;;;25.22;32.52
75359;BME280;64046;51.978;5.934;2023-07-02T12:02:05;100921.03;;;25.29;33.08
75359;BME280;64046;51.978;5.934;2023-07-02T12:04:42;100923.00;;;25.53;32.27
75359;BME280;64046;51.978;5.934;2023-07-02T12:07:22;100930.25;;;25.61;32.33
75359;BME280;64046;51.978;5.934;2023-07-02T12:09:58;100929.56;;;25.59;32.20
75359;BME280;64046;51.978;5.934;2023-07-02T12:12:33;100923.19;;;25.60;32.10
75359;BME280;64046;51.978;5.934;2023-07-02T12:15:08;100926.00;;;25.50;32.12
75359;BME280;64046;51.978;5.934;2023-07-02T12:17:50;100932.94;;;25.61;32.08
75359;BME280;64046;51.978;5.934;2023-07-02T12:20:25;100933.94;;;25.60;31.73
75359;BME280;64046;51.978;5.934;2023-07-02T12:23:00;100934.63;;;25.70;31.87
75359;BME280;64046;51.978;5.934;2023-07-02T12:25:32;100928.22;;;25.63;31.80
75359;BME280;64046;51.978;5.934;2023-07-02T12:28:04;100932.25;;;25.59;31.84
75359;BME280;64046;51.978;5.934;2023-07-02T12:30:35;100938.94;;;25.54;31.71
75359;BME280;64046;51.978;5.934;2023-07-02T12:33:06;100949.34;;;25.49;31.85
75359;BME280;64046;51.978;5.934;2023-07-02T12:35:38;100940.34;;;25.75;31.61
75359;BME280;64046;51.978;5.934;2023-07-02T12:38:22;100944.53;;;25.86;31.60
75359;BME280;64046;51.978;5.934;2023-07-02T12:40:52;100942.19;;;25.83;31.68
75359;BME280;64046;51.978;5.934;2023-07-02T12:43:23;100941.19;;;25.84;31.38
75359;BME280;64046;51.978;5.934;2023-07-02T12:45:54;100943.84;;;25.76;31.20
75359;BME280;64046;51.978;5.934;2023-07-02T12:48:35;100946.41;;;25.85;31.08
75359;BME280;64046;51.978;5.934;2023-07-02T12:51:05;100943.84;;;25.67;30.91
75359;BME280;64046;51.978;5.934;2023-07-02T12:53:39;100955.81;;;25.89;30.88
75359;BME280;64046;51.978;5.934;2023-07-02T12:56:16;100947.59;;;25.91;31.12
75359;BME280;64046;51.978;5.934;2023-07-02T12:58:48;100952.75;;;25.84;31.27
75359;BME280;64046;51.978;5.934;2023-07-02T13:01:25;100956.53;;;26.08;31.30
75359;BME280;64046;51.978;5.934;2023-07-02T13:03:58;100954.28;;;25.87;31.11
75359;BME280;64046;51.978;5.934;2023-07-02T13:06:28;100946.03;;;25.80;31.70
75359;BME280;64046;51.978;5.934;2023-07-02T13:09:03;100957.88;;;26.04;31.20
75359;BME280;64046;51.978;5.934;2023-07-02T13:11:34;100948.91;;;25.87;31.37
75359;BME280;64046;51.978;5.934;2023-07-02T13:14:07;100958.66;;;25.88;31.81
75359;BME280;64046;51.978;5.934;2023-07-02T13:16:39;100960.97;;;25.83;31.54
75359;BME280;64046;51.978;5.934;2023-07-02T13:19:13;100964.03;;;25.96;31.58
75359;BME280;64046;51.978;5.934;2023-07-02T13:21:45;100965.34;;;25.76;31.57
75359;BME280;64046;51.978;5.934;2023-07-02T13:24:19;100965.16;;;25.77;31.76